sensor_id;sensor_type;location;lat;lon;timestamp;pressure;altitude;pressure_sealevel;temperature;humidity
19751;BME280;4663;49.120;9.730;2023-05-12T00:00:28;97783.56;;;12.37;97.41
19751;BME280;4663;49.120;9.730;2023-05-12T00:02:53;97781.19;;;12.42;97.70
19751;BME280;4663;49.120;9.730;2023-05-12T00:05:19;97782.81;;;12.51;97.48
19751;BME280;4663;49.120;9.730;2023-05-12T00:07:44;97774.88;;;12.58;97.04
19751;BME280;4663;49.120;9.730;2023-05-12T00:10:09;97775.03;;;12.56;97.14
19751;BME280;4663;49.120;9.730;2023-05-12T00:12:35;97778.34;;;12.67;96.72
19751;BME280;4663;49.120;9.730;2023-05-12T00:15:01;97774.41;;;12.54;96.75
19751;BME280;4663;49.120;9.730;2023-05-12T00:17:26;97777.13;;;12.46;96.84
19751;BME280;4663;49.120;9.730;2023-05-12T00:19:52;97779.03;;;12.37;97.96
19751;BME280;4663;49.120;9.730;2023-05-12T00:22:17;97771.88;;;12.53;97.40
19751;BME280;4663;49.120;9.730;2023-05-12T00:24:42;97773.25;;;12.49;96.90
19751;BME280;4663;49.120;9.730;2023-05-12T00:27:08;97767.38;;;12.45;97.39
19751;BME280;4663;49.120;9.730;2023-05-12T00:29:33;97769.16;;;12.29;98.60
19751;BME280;4663;49.120;9.730;2023-05-12T00:31:58;97769.09;;;12.38;98.30
19751;BME280;4663;49.120;9.730;2023-05-12T00:34:24;97769.09;;;12.14;98.55
19751;BME280;4663;49.120;9.730;2023-05-12T00:36:51;97768.66;;;11.94;99.93
19751;BME280;4663;49.120;9.730;2023-05-12T00:39:16;97774.00;;;12.11;99.74
19751;BME280;4663;49.120;9.730;2023-05-12T00:41:41;97762.03;;;12.13;99.86
19751;BME280;4663;49.120;9.730;2023-05-12T00:44:07;97761.66;;;12.16;99.79
19751;BME280;4663;49.120;9.730;2023-05-12T00:46:33;97764.44;;;12.31;98.28
19751;BME280;4663;49.120;9.730;2023-05-12T00:48:58;97759.06;;;12.31;97.75
19751;BME280;4663;49.120;9.730;2023-05-12T00:51:25;97759.06;;;12.31;96.78
19751;BME280;4663;49.120;9.730;2023-05-12T00:53:51;97759.41;;;12.28;97.40
19751;BME280;4663;49.120;9.730;2023-05-12T00:56:18;97757.03;;;12.33;98.16
19751;BME280;4663;49.120;9.730;2023-05-12T00:58:44;97760.63;;;12.26;99.16
19751;BME280;4663;49.120;9.730;2023-05-12T01:01:09;97756.38;;;12.31;98.57
19751;BME280;4663;49.120;9.730;2023-05-12T01:03:35;97759.88;;;12.32;98.87
19751;BME280;4663;49.120;9.730;2023-05-12T01:09:04;97754.56;;;12.24;98.25
19751;BME280;4663;49.120;9.730;2023-05-12T01:11:30;97755.88;;;12.28;98.18
19751;BME280;4663;49.120;9.730;2023-05-12T01:13:55;97748.66;;;12.28;98.00
19751;BME280;4663;49.120;9.730;2023-05-12T01:16:25;97753.81;;;12.06;98.62
19751;BME280;4663;49.120;9.730;2023-05-12T01:18:54;97757.84;;;12.11;98.92
19751;BME280;4663;49.120;9.730;2023-05-12T01:21:20;97754.63;;;12.15;98.33
19751;BME280;4663;49.120;9.730;2023-05-12T01:23:58;97754.94;;;12.20;97.88
19751;BME280;4663;49.120;9.730;2023-05-12T01:26:26;97755.00;;;12.36;97.71
19751;BME280;4663;49.120;9.730;2023-05-12T01:28:54;97759.59;;;12.50;97.15
19751;BME280;4663;49.120;9.730;2023-05-12T01:31:20;97766.50;;;12.53;96.85
19751;BME280;4663;49.120;9.730;2023-05-12T01:33:46;97760.63;;;12.49;97.02
19751;BME280;4663;49.120;9.730;2023-05-12T01:36:11;97764.63;;;12.53;97.25
19751;BME280;4663;49.120;9.730;2023-05-12T01:38:36;97758.16;;;12.16;97.73
19751;BME280;4663;49.120;9.730;2023-05-12T01:41:02;97759.78;;;12.25;97.85
19751;BME280;4663;49.120;9.730;2023-05-12T01:43:27;97756.72;;;12.28;97.83
19751;BME280;4663;49.120;9.730;2023-05-12T01:45:52;97757.38;;;12.30;97.92
19751;BME280;4663;49.120;9.730;2023-05-12T01:48:18;97764.50;;;12.23;98.16
19751;BME280;4663;49.120;9.730;2023-05-12T01:50:43;97761.00;;;12.14;98.79
19751;BME280;4663;49.120;9.730;2023-05-12T01:53:08;97759.88;;;12.08;98.90
19751;BME280;4663;49.120;9.730;2023-05-12T01:55:37;97755.34;;;12.09;99.19
19751;BME280;4663;49.120;9.730;2023-05-12T01:58:02;97768.97;;;12.07;99.30
19751;BME280;4663;49.120;9.730;2023-05-12T02:00:27;97768.56;;;12.19;98.99
19751;BME280;4663;49.120;9.730;2023-05-12T02:02:53;97758.78;;;12.18;98.67
19751;BME280;4663;49.120;9.730;2023-05-12T02:05:18;97760.13;;;12.22;98.64
19751;BME280;4663;49.120;9.730;2023-05-12T02:07:44;97767.03;;;12.16;98.91
19751;BME280;4663;49.120;9.730;2023-05-12T02:10:09;97766.59;;;12.04;99.33
19751;BME280;4663;49.120;9.730;2023-05-12T02:12:35;97768.13;;;12.30;99.27
19751;BME280;4663;49.120;9.730;2023-05-12T02:15:00;97761.69;;;12.40;98.38
19751;BME280;4663;49.120;9.730;2023-05-12T02:17:25;97766.00;;;12.49;97.96
19751;BME280;4663;49.120;9.730;2023-05-12T02:19:52;97766.97;;;12.56;98.02
19751;BME280;4663;49.120;9.730;2023-05-12T02:22:18;97764.88;;;12.43;97.95
19751;BME280;4663;49.120;9.730;2023-05-12T02:24:43;97763.13;;;12.51;98.12
19751;BME280;4663;49.120;9.730;2023-05-12T02:27:09;97767.91;;;12.40;98.45
19751;BME280;4663;49.120;9.730;2023-05-12T02:29:34;97756.91;;;12.27;99.32
19751;BME280;4663;49.120;9.730;2023-05-12T02:32:00;97758.03;;;12.32;98.93
19751;BME280;4663;49.120;9.730;2023-05-12T02:34:25;97755.72;;;12.29;99.09
19751;BME280;4663;49.120;9.730;2023-05-12T02:36:51;97760.03;;;12.39;99.41
19751;BME280;4663;49.120;9.730;2023-05-12T02:39:16;97749.50;;;12.29;98.78
19751;BME280;4663;49.120;9.730;2023-05-12T02:41:41;97756.38;;;12.31;98.53
19751;BME280;4663;49.120;9.730;2023-05-12T02:44:07;97745.50;;;12.25;99.85
19751;BME280;4663;49.120;9.730;2023-05-12T02:46:32;97750.09;;;12.16;100.00
19751;BME280;4663;49.120;9.730;2023-05-12T02:48:57;97750.16;;;12.31;98.66
19751;BME280;4663;49.120;9.730;2023-05-12T02:51:23;97752.00;;;12.30;98.95
19751;BME280;4663;49.120;9.730;2023-05-12T02:53:48;97748.72;;;12.20;98.31
19751;BME280;4663;49.120;9.730;2023-05-12T02:56:13;97746.25;;;12.33;98.92
19751;BME280;4663;49.120;9.730;2023-05-12T02:58:39;97749.41;;;12.14;98.62
19751;BME280;4663;49.120;9.730;2023-05-12T03:01:04;97739.72;;;12.04;99.06
19751;BME280;4663;49.120;9.730;2023-05-12T03:03:29;97741.34;;;12.14;100.00
19751;BME280;4663;49.120;9.730;2023-05-12T03:05:55;97747.53;;;11.91;100.00
19751;BME280;4663;49.120;9.730;2023-05-12T03:08:20;97742.75;;;12.01;100.00
19751;BME280;4663;49.120;9.730;2023-05-12T03:10:46;97743.97;;;12.22;98.68
19751;BME280;4663;49.120;9.730;2023-05-12T03:13:11;97747.22;;;12.41;97.75
19751;BME280;4663;49.120;9.730;2023-05-12T03:15:36;97750.94;;;12.40;97.75
19751;BME280;4663;49.120;9.730;2023-05-12T03:18:02;97750.91;;;12.16;98.01
19751;BME280;4663;49.120;9.730;2023-05-12T03:20:27;97746.38;;;12.17;98.36
19751;BME280;4663;49.120;9.730;2023-05-12T03:22:52;97746.69;;;11.90;99.47
19751;BME280;4663;49.120;9.730;2023-05-12T03:25:18;97750.78;;;11.78;100.00
19751;BME280;4663;49.120;9.730;2023-05-12T03:27:43;97748.75;;;12.12;99.21
19751;BME280;4663;49.120;9.730;2023-05-12T03:30:09;97754.03;;;12.28;98.10
19751;BME280;4663;49.120;9.730;2023-05-12T03:32:35;97745.34;;;12.18;97.57
19751;BME280;4663;49.120;9.730;2023-05-12T03:35:03;97758.94;;;11.93;98.29
19751;BME280;4663;49.120;9.730;2023-05-12T03:37:29;97754.59;;;11.92;98.43
19751;BME280;4663;49.120;9.730;2023-05-12T03:39:54;97748.75;;;11.72;100.00
19751;BME280;4663;49.120;9.730;2023-05-12T03:42:20;97753.78;;;11.75;100.00
19751;BME280;4663;49.120;9.730;2023-05-12T03:44:45;97757.31;;;11.75;100.00
19751;BME280;4663;49.120;9.730;2023-05-12T03:47:11;97747.94;;;11.63;100.00
19751;BME280;4663;49.120;9.730;2023-05-12T03:49:37;97747.22;;;11.86;100.00
19751;BME280;4663;49.120;9.730;2023-05-12T03:52:03;97743.88;;;11.84;100.00
19751;BME280;4663;49.120;9.730;2023-05-12T03:54:28;97746.75;;;11.74;100.00
19751;BME280;4663;49.120;9.730;2023-05-12T03:56:54;97749.56;;;11.89;99.56
19751;BME280;4663;49.120;9.730;2023-05-12T03:59:20;97752.63;;;11.77;99.62
19751;BME280;4663;49.120;9.730;2023-05-12T04:01:45;97741.69;;;11.79;99.28
19751;BME280;4663;49.120;9.730;2023-05-12T04:04:11;97748.56;;;11.73;99.64
19751;BME280;4663;49.120;9.730;2023-05-12T04:06:36;97751.81;;;12.08;98.09
19751;BME280;4663;49.120;9.730;2023-05-12T04:09:02;97747.88;;;11.88;98.01
19751;BME280;4663;49.120;9.730;2023-05-12T04:11:28;97745.19;;;11.88;99.63
19751;BME280;4663;49.120;9.730;2023-05-12T04:13:53;97744.09;;;12.05;98.62
19751;BME280;4663;49.120;9.730;2023-05-12T04:16:19;97751.34;;;11.97;98.14
19751;BME280;4663;49.120;9.730;2023-05-12T04:18:45;97756.16;;;12.10;97.76
19751;BME280;4663;49.120;9.730;2023-05-12T04:21:10;97760.97;;;12.23;97.08
19751;BME280;4663;49.120;9.730;2023-05-12T04:23:36;97758.59;;;11.96;98.63
19751;BME280;4663;49.120;9.730;2023-05-12T04:26:04;97757.13;;;12.17;98.55
19751;BME280;4663;49.120;9.730;2023-05-12T04:28:30;97758.09;;;12.24;97.58
19751;BME280;4663;49.120;9.730;2023-05-12T04:30:55;97756.22;;;12.33;96.99
19751;BME280;4663;49.120;9.730;2023-05-12T04:33:20;97754.00;;;12.37;97.03
19751;BME280;4663;49.120;9.730;2023-05-12T04:35:46;97760.22;;;12.05;97.42
19751;BME280;4663;49.120;9.730;2023-05-12T04:38:11;97765.41;;;12.07;97.75
19751;BME280;4663;49.120;9.730;2023-05-12T04:40:37;97767.00;;;11.93;98.77
19751;BME280;4663;49.120;9.730;2023-05-12T04:43:02;97766.16;;;11.92;98.75
19751;BME280;4663;49.120;9.730;2023-05-12T04:45:28;97770.75;;;11.84;99.34
19751;BME280;4663;49.120;9.730;2023-05-12T04:47:54;97766.88;;;11.86;99.45
19751;BME280;4663;49.120;9.730;2023-05-12T04:50:20;97768.63;;;12.02;98.92
19751;BME280;4663;49.120;9.730;2023-05-12T04:52:45;97771.31;;;12.02;98.88
19751;BME280;4663;49.120;9.730;2023-05-12T04:55:11;97775.16;;;12.08;98.71
19751;BME280;4663;49.120;9.730;2023-05-12T04:57:36;97771.09;;;12.12;99.08
19751;BME280;4663;49.120;9.730;2023-05-12T05:00:02;97778.56;;;12.02;99.25
19751;BME280;4663;49.120;9.730;2023-05-12T05:02:29;97778.69;;;12.08;98.19
19751;BME280;4663;49.120;9.730;2023-05-12T05:04:54;97776.97;;;12.16;98.81
19751;BME280;4663;49.120;9.730;2023-05-12T05:07:20;97781.38;;;12.08;98.33
19751;BME280;4663;49.120;9.730;2023-05-12T05:09:45;97782.88;;;12.11;98.51
19751;BME280;4663;49.120;9.730;2023-05-12T05:12:10;97783.72;;;12.12;97.93
19751;BME280;4663;49.120;9.730;2023-05-12T05:14:36;97781.81;;;11.89;99.61
19751;BME280;4663;49.120;9.730;2023-05-12T05:17:01;97783.13;;;11.93;100.00
19751;BME280;4663;49.120;9.730;2023-05-12T05:19:28;97781.06;;;12.03;99.86
19751;BME280;4663;49.120;9.730;2023-05-12T05:21:53;97782.06;;;12.02;99.65
19751;BME280;4663;49.120;9.730;2023-05-12T05:24:18;97786.13;;;11.98;99.97
19751;BME280;4663;49.120;9.730;2023-05-12T05:26:44;97785.78;;;12.01;99.63
19751;BME280;4663;49.120;9.730;2023-05-12T05:29:10;97788.63;;;12.00;100.00
19751;BME280;4663;49.120;9.730;2023-05-12T05:31:35;97786.28;;;12.05;99.97
19751;BME280;4663;49.120;9.730;2023-05-12T05:34:01;97793.09;;;12.16;99.86
19751;BME280;4663;49.120;9.730;2023-05-12T05:36:26;97789.63;;;12.07;99.25
19751;BME280;4663;49.120;9.730;2023-05-12T05:38:52;97798.13;;;12.19;99.71
19751;BME280;4663;49.120;9.730;2023-05-12T05:41:17;97797.75;;;12.22;99.21
19751;BME280;4663;49.120;9.730;2023-05-12T05:43:43;97795.63;;;12.17;98.79
19751;BME280;4663;49.120;9.730;2023-05-12T05:46:09;97799.84;;;12.12;99.24
19751;BME280;4663;49.120;9.730;2023-05-12T05:48:34;97802.03;;;12.08;100.00
19751;BME280;4663;49.120;9.730;2023-05-12T05:51:04;97802.84;;;12.17;100.00
19751;BME280;4663;49.120;9.730;2023-05-12T05:53:30;97800.72;;;12.04;100.00
19751;BME280;4663;49.120;9.730;2023-05-12T05:55:55;97802.88;;;12.08;100.00
19751;BME280;4663;49.120;9.730;2023-05-12T05:58:21;97802.66;;;12.18;100.00
19751;BME280;4663;49.120;9.730;2023-05-12T06:00:46;97805.44;;;12.33;99.39
19751;BME280;4663;49.120;9.730;2023-05-12T06:03:12;97802.56;;;12.35;99.30
19751;BME280;4663;49.120;9.730;2023-05-12T06:05:37;97808.19;;;12.25;99.57
19751;BME280;4663;49.120;9.730;2023-05-12T06:08:02;97807.25;;;12.41;99.73
19751;BME280;4663;49.120;9.730;2023-05-12T06:10:29;97809.84;;;12.58;99.62
19751;BME280;4663;49.120;9.730;2023-05-12T06:12:55;97810.47;;;12.37;98.77
19751;BME280;4663;49.120;9.730;2023-05-12T06:15:20;97811.59;;;12.19;99.71
19751;BME280;4663;49.120;9.730;2023-05-12T06:17:46;97814.78;;;12.46;99.95
19751;BME280;4663;49.120;9.730;2023-05-12T06:20:12;97811.59;;;12.19;99.33
19751;BME280;4663;49.120;9.730;2023-05-12T06:22:38;97817.94;;;12.18;100.00
19751;BME280;4663;49.120;9.730;2023-05-12T06:25:04;97810.38;;;12.53;100.00
19751;BME280;4663;49.120;9.730;2023-05-12T06:27:29;97820.53;;;12.43;98.31
19751;BME280;4663;49.120;9.730;2023-05-12T06:29:55;97818.53;;;12.05;100.00
19751;BME280;4663;49.120;9.730;2023-05-12T06:32:20;97814.28;;;12.19;100.00
19751;BME280;4663;49.120;9.730;2023-05-12T06:34:45;97817.50;;;12.38;100.00
19751;BME280;4663;49.120;9.730;2023-05-12T06:37:11;97825.53;;;12.46;98.70
19751;BME280;4663;49.120;9.730;2023-05-12T06:39:36;97826.91;;;12.42;98.72
19751;BME280;4663;49.120;9.730;2023-05-12T06:42:02;97828.28;;;12.38;99.49
19751;BME280;4663;49.120;9.730;2023-05-12T06:44:28;97819.53;;;12.04;99.84
19751;BME280;4663;49.120;9.730;2023-05-12T06:46:53;97816.91;;;11.87;100.00
19751;BME280;4663;49.120;9.730;2023-05-12T06:49:18;97819.94;;;12.56;100.00
19751;BME280;4663;49.120;9.730;2023-05-12T06:51:44;97820.22;;;12.38;99.17
19751;BME280;4663;49.120;9.730;2023-05-12T06:54:10;97815.22;;;12.58;98.92
19751;BME280;4663;49.120;9.730;2023-05-12T06:56:35;97814.88;;;12.61;98.58
19751;BME280;4663;49.120;9.730;2023-05-12T06:59:00;97816.34;;;12.87;97.68
19751;BME280;4663;49.120;9.730;2023-05-12T07:01:28;97817.19;;;12.88;97.95
19751;BME280;4663;49.120;9.730;2023-05-12T07:03:54;97816.31;;;12.72;96.48
19751;BME280;4663;49.120;9.730;2023-05-12T07:06:20;97823.91;;;12.68;96.93
19751;BME280;4663;49.120;9.730;2023-05-12T07:08:46;97824.88;;;12.99;97.88
19751;BME280;4663;49.120;9.730;2023-05-12T07:11:12;97823.19;;;13.21;94.48
19751;BME280;4663;49.120;9.730;2023-05-12T07:13:38;97823.28;;;13.28;94.86
19751;BME280;4663;49.120;9.730;2023-05-12T07:16:04;97827.25;;;13.71;96.48
19751;BME280;4663;49.120;9.730;2023-05-12T07:18:30;97825.53;;;13.40;94.36
19751;BME280;4663;49.120;9.730;2023-05-12T07:20:55;97828.72;;;13.58;95.46
19751;BME280;4663;49.120;9.730;2023-05-12T07:23:20;97821.72;;;13.49;94.36
19751;BME280;4663;49.120;9.730;2023-05-12T07:25:46;97818.31;;;13.02;94.49
19751;BME280;4663;49.120;9.730;2023-05-12T07:28:11;97825.69;;;12.76;95.11
19751;BME280;4663;49.120;9.730;2023-05-12T07:30:37;97816.16;;;13.35;94.95
19751;BME280;4663;49.120;9.730;2023-05-12T07:33:03;97828.22;;;13.40;92.34
19751;BME280;4663;49.120;9.730;2023-05-12T07:35:28;97828.72;;;13.58;94.95
19751;BME280;4663;49.120;9.730;2023-05-12T07:37:55;97819.34;;;13.69;92.62
19751;BME280;4663;49.120;9.730;2023-05-12T07:40:20;97817.38;;;13.48;93.72
19751;BME280;4663;49.120;9.730;2023-05-12T07:42:46;97812.31;;;13.15;93.68
19751;BME280;4663;49.120;9.730;2023-05-12T07:45:11;97818.97;;;13.72;95.58
19751;BME280;4663;49.120;9.730;2023-05-12T07:47:37;97822.50;;;14.18;92.90
19751;BME280;4663;49.120;9.730;2023-05-12T07:50:02;97818.75;;;13.44;92.78
19751;BME280;4663;49.120;9.730;2023-05-12T07:52:28;97818.72;;;13.82;92.14
19751;BME280;4663;49.120;9.730;2023-05-12T07:54:55;97816.53;;;13.47;92.39
19751;BME280;4663;49.120;9.730;2023-05-12T07:57:21;97818.47;;;13.00;94.38
19751;BME280;4663;49.120;9.730;2023-05-12T07:59:47;97820.38;;;13.15;94.49
19751;BME280;4663;49.120;9.730;2023-05-12T08:02:13;97821.44;;;12.58;94.24
19751;BME280;4663;49.120;9.730;2023-05-12T08:04:38;97822.69;;;13.18;94.61
19751;BME280;4663;49.120;9.730;2023-05-12T08:07:04;97822.94;;;13.61;92.49
19751;BME280;4663;49.120;9.730;2023-05-12T08:09:29;97825.75;;;13.83;92.02
19751;BME280;4663;49.120;9.730;2023-05-12T08:11:54;97817.66;;;13.53;92.30
19751;BME280;4663;49.120;9.730;2023-05-12T08:14:20;97814.41;;;14.03;89.99
19751;BME280;4663;49.120;9.730;2023-05-12T08:16:46;97822.94;;;13.61;91.99
19751;BME280;4663;49.120;9.730;2023-05-12T08:19:12;97822.63;;;13.80;89.93
19751;BME280;4663;49.120;9.730;2023-05-12T08:21:38;97830.75;;;13.56;93.56
19751;BME280;4663;49.120;9.730;2023-05-12T08:24:03;97821.94;;;13.62;91.79
19751;BME280;4663;49.120;9.730;2023-05-12T08:26:28;97832.59;;;13.02;93.65
19751;BME280;4663;49.120;9.730;2023-05-12T08:28:54;97827.91;;;13.19;92.74
19751;BME280;4663;49.120;9.730;2023-05-12T08:31:19;97826.91;;;12.97;93.25
19751;BME280;4663;49.120;9.730;2023-05-12T08:33:45;97829.28;;;13.69;91.13
19751;BME280;4663;49.120;9.730;2023-05-12T08:36:10;97839.28;;;14.13;89.75
19751;BME280;4663;49.120;9.730;2023-05-12T08:38:36;97834.63;;;14.07;91.23
19751;BME280;4663;49.120;9.730;2023-05-12T08:41:22;97829.13;;;14.52;88.58
19751;BME280;4663;49.120;9.730;2023-05-12T08:43:50;97837.47;;;15.16;87.19
19751;BME280;4663;49.120;9.730;2023-05-12T08:46:16;97823.97;;;15.74;84.92
19751;BME280;4663;49.120;9.730;2023-05-12T08:48:44;97822.78;;;15.04;80.14
19751;BME280;4663;49.120;9.730;2023-05-12T08:51:11;97834.75;;;15.16;84.66
19751;BME280;4663;49.120;9.730;2023-05-12T08:53:39;97830.13;;;14.88;83.49
19751;BME280;4663;49.120;9.730;2023-05-12T08:56:06;97838.91;;;16.05;87.20
19751;BME280;4663;49.120;9.730;2023-05-12T08:58:33;97827.81;;;15.93;81.96
19751;BME280;4663;49.120;9.730;2023-05-12T09:00:59;97834.84;;;15.23;84.66
19751;BME280;4663;49.120;9.730;2023-05-12T09:03:28;97835.44;;;16.11;86.54
19751;BME280;4663;49.120;9.730;2023-05-12T09:05:56;97831.03;;;16.59;80.14
19751;BME280;4663;49.120;9.730;2023-05-12T09:08:23;97822.75;;;15.83;80.10
19751;BME280;4663;49.120;9.730;2023-05-12T09:10:50;97834.75;;;14.95;82.03
19751;BME280;4663;49.120;9.730;2023-05-12T09:13:19;97839.44;;;15.29;84.49
19751;BME280;4663;49.120;9.730;2023-05-12T09:15:47;97829.34;;;15.16;82.38
19751;BME280;4663;49.120;9.730;2023-05-12T09:18:13;97836.16;;;15.34;83.05
19751;BME280;4663;49.120;9.730;2023-05-12T09:20:39;97837.88;;;14.98;82.97
19751;BME280;4663;49.120;9.730;2023-05-12T09:23:18;97833.28;;;15.64;83.59
19751;BME280;4663;49.120;9.730;2023-05-12T09:25:44;97848.03;;;15.11;83.04
19751;BME280;4663;49.120;9.730;2023-05-12T09:28:11;97845.59;;;15.74;82.70
19751;BME280;4663;49.120;9.730;2023-05-12T09:30:37;97850.19;;;15.23;82.91
19751;BME280;4663;49.120;9.730;2023-05-12T09:33:07;97846.84;;;14.77;84.28
19751;BME280;4663;49.120;9.730;2023-05-12T09:35:41;97834.19;;;15.78;82.77
19751;BME280;4663;49.120;9.730;2023-05-12T09:38:10;97837.50;;;15.74;81.76
19751;BME280;4663;49.120;9.730;2023-05-12T09:40:36;97829.00;;;15.77;81.25
19751;BME280;4663;49.120;9.730;2023-05-12T09:43:05;97830.72;;;15.91;81.34
19751;BME280;4663;49.120;9.730;2023-05-12T09:45:35;97835.34;;;15.98;80.71
19751;BME280;4663;49.120;9.730;2023-05-12T09:48:08;97844.91;;;16.00;81.08
19751;BME280;4663;49.120;9.730;2023-05-12T09:50:41;97835.19;;;15.42;83.03
19751;BME280;4663;49.120;9.730;2023-05-12T09:53:08;97852.56;;;15.33;82.77
19751;BME280;4663;49.120;9.730;2023-05-12T09:55:34;97847.53;;;14.86;84.73
19751;BME280;4663;49.120;9.730;2023-05-12T09:58:00;97845.56;;;14.95;85.00
19751;BME280;4663;49.120;9.730;2023-05-12T10:00:26;97851.41;;;14.39;84.55
19751;BME280;4663;49.120;9.730;2023-05-12T10:02:52;97857.03;;;14.60;85.46
19751;BME280;4663;49.120;9.730;2023-05-12T10:05:21;97848.34;;;14.64;85.17
19751;BME280;4663;49.120;9.730;2023-05-12T10:07:48;97847.66;;;14.41;86.49
19751;BME280;4663;49.120;9.730;2023-05-12T10:10:17;97849.78;;;15.04;86.80
19751;BME280;4663;49.120;9.730;2023-05-12T10:12:44;97850.13;;;14.72;84.57
19751;BME280;4663;49.120;9.730;2023-05-12T10:15:10;97842.59;;;14.68;84.28
19751;BME280;4663;49.120;9.730;2023-05-12T10:17:38;97846.59;;;15.37;83.74
19751;BME280;4663;49.120;9.730;2023-05-12T10:20:05;97846.78;;;15.36;82.78
19751;BME280;4663;49.120;9.730;2023-05-12T10:22:33;97842.31;;;15.78;82.66
19751;BME280;4663;49.120;9.730;2023-05-12T10:25:00;97836.06;;;16.06;81.68
19751;BME280;4663;49.120;9.730;2023-05-12T10:27:28;97844.75;;;15.73;84.23
19751;BME280;4663;49.120;9.730;2023-05-12T10:29:54;97846.06;;;15.84;82.37
19751;BME280;4663;49.120;9.730;2023-05-12T10:32:19;97842.75;;;16.17;80.14
19751;BME280;4663;49.120;9.730;2023-05-12T10:34:45;97831.66;;;15.41;78.65
19751;BME280;4663;49.120;9.730;2023-05-12T10:37:10;97845.84;;;15.22;81.64
19751;BME280;4663;49.120;9.730;2023-05-12T10:39:46;97844.38;;;15.19;81.89
19751;BME280;4663;49.120;9.730;2023-05-12T10:42:15;97848.19;;;15.60;82.86
19751;BME280;4663;49.120;9.730;2023-05-12T10:44:52;97853.66;;;15.38;84.08
19751;BME280;4663;49.120;9.730;2023-05-12T10:47:18;97851.69;;;15.54;83.85
19751;BME280;4663;49.120;9.730;2023-05-12T10:49:43;97846.69;;;15.51;82.61
19751;BME280;4663;49.120;9.730;2023-05-12T10:52:12;97854.03;;;15.35;82.45
19751;BME280;4663;49.120;9.730;2023-05-12T10:54:42;97875.56;;;15.22;84.13
19751;BME280;4663;49.120;9.730;2023-05-12T10:57:13;97858.31;;;15.01;81.83
19751;BME280;4663;49.120;9.730;2023-05-12T10:59:55;97864.47;;;14.95;82.39
19751;BME280;4663;49.120;9.730;2023-05-12T11:02:28;97870.19;;;14.85;83.60
19751;BME280;4663;49.120;9.730;2023-05-12T11:05:00;97863.44;;;14.22;82.31
19751;BME280;4663;49.120;9.730;2023-05-12T11:07:30;97869.72;;;14.44;83.23
19751;BME280;4663;49.120;9.730;2023-05-12T11:09:58;97876.63;;;14.01;85.13
19751;BME280;4663;49.120;9.730;2023-05-12T11:12:29;97870.31;;;14.24;84.95
19751;BME280;4663;49.120;9.730;2023-05-12T11:15:00;97879.19;;;14.55;85.03
19751;BME280;4663;49.120;9.730;2023-05-12T11:17:25;97879.28;;;14.62;84.66
19751;BME280;4663;49.120;9.730;2023-05-12T11:19:51;97880.84;;;14.71;85.73
19751;BME280;4663;49.120;9.730;2023-05-12T11:22:18;97876.91;;;14.07;84.55
19751;BME280;4663;49.120;9.730;2023-05-12T11:24:45;97866.56;;;13.80;84.89
19751;BME280;4663;49.120;9.730;2023-05-12T11:27:15;97873.94;;;14.32;85.85
19751;BME280;4663;49.120;9.730;2023-05-12T11:29:42;97876.78;;;14.45;84.96
19751;BME280;4663;49.120;9.730;2023-05-12T11:32:10;97874.75;;;13.87;84.56
19751;BME280;4663;49.120;9.730;2023-05-12T11:34:37;97883.31;;;14.51;85.07
19751;BME280;4663;49.120;9.730;2023-05-12T11:37:04;97876.78;;;14.45;84.91
19751;BME280;4663;49.120;9.730;2023-05-12T11:39:31;97879.22;;;14.40;84.97
19751;BME280;4663;49.120;9.730;2023-05-12T11:42:06;97875.22;;;14.21;84.48
19751;BME280;4663;49.120;9.730;2023-05-12T11:44:35;97882.75;;;14.56;83.14
19751;BME280;4663;49.120;9.730;2023-05-12T11:49:50;97878.81;;;14.58;84.16
19751;BME280;4663;49.120;9.730;2023-05-12T11:52:18;97890.94;;;14.84;85.51
19751;BME280;4663;49.120;9.730;2023-05-12T11:57:32;97879.28;;;14.62;83.48
19751;BME280;4663;49.120;9.730;2023-05-12T11:59:59;97888.97;;;14.56;84.33
19751;BME280;4663;49.120;9.730;2023-05-12T12:02:25;97882.09;;;14.90;82.65
19751;BME280;4663;49.120;9.730;2023-05-12T12:04:51;97888.78;;;14.95;83.31
19751;BME280;4663;49.120;9.730;2023-05-12T12:07:27;97885.06;;;14.44;84.12
19751;BME280;4663;49.120;9.730;2023-05-12T12:09:53;97899.53;;;14.73;84.46
19751;BME280;4663;49.120;9.730;2023-05-12T12:12:18;97899.13;;;14.39;85.20
19751;BME280;4663;49.120;9.730;2023-05-12T12:14:43;97894.94;;;14.36;85.96
19751;BME280;4663;49.120;9.730;2023-05-12T12:17:09;97897.75;;;14.28;84.01
19751;BME280;4663;49.120;9.730;2023-05-12T12:19:34;97897.47;;;14.38;82.69
19751;BME280;4663;49.120;9.730;2023-05-12T12:22:00;97906.59;;;14.07;86.58
19751;BME280;4663;49.120;9.730;2023-05-12T12:24:25;97901.81;;;14.39;83.75
19751;BME280;4663;49.120;9.730;2023-05-12T12:26:51;97895.69;;;14.00;83.75
19751;BME280;4663;49.120;9.730;2023-05-12T12:29:17;97904.06;;;14.35;85.10
19751;BME280;4663;49.120;9.730;2023-05-12T12:31:42;97898.69;;;14.35;84.55
19751;BME280;4663;49.120;9.730;2023-05-12T12:34:08;97904.72;;;14.52;83.50
19751;BME280;4663;49.120;9.730;2023-05-12T12:36:34;97907.00;;;14.71;83.62
19751;BME280;4663;49.120;9.730;2023-05-12T12:39:00;97904.88;;;14.51;85.21
19751;BME280;4663;49.120;9.730;2023-05-12T12:41:26;97908.59;;;15.02;85.16
19751;BME280;4663;49.120;9.730;2023-05-12T12:43:51;97903.19;;;14.65;84.37
19751;BME280;4663;49.120;9.730;2023-05-12T12:46:18;97907.88;;;14.41;84.17
19751;BME280;4663;49.120;9.730;2023-05-12T12:48:43;97909.44;;;14.65;83.32
19751;BME280;4663;49.120;9.730;2023-05-12T12:51:09;97914.53;;;14.75;83.24
19751;BME280;4663;49.120;9.730;2023-05-12T12:53:34;97914.28;;;14.92;82.48
19751;BME280;4663;49.120;9.730;2023-05-12T12:56:00;97911.41;;;14.94;83.51
19751;BME280;4663;49.120;9.730;2023-05-12T12:58:25;97923.34;;;14.84;84.64
19751;BME280;4663;49.120;9.730;2023-05-12T13:00:51;97918.34;;;14.81;84.05
19751;BME280;4663;49.120;9.730;2023-05-12T13:03:17;97919.22;;;14.88;84.85
19751;BME280;4663;49.120;9.730;2023-05-12T13:05:42;97931.88;;;14.51;87.08
19751;BME280;4663;49.120;9.730;2023-05-12T13:08:08;97915.22;;;14.32;87.75
19751;BME280;4663;49.120;9.730;2023-05-12T13:10:33;97917.94;;;14.47;85.56
19751;BME280;4663;49.120;9.730;2023-05-12T13:12:59;97925.06;;;14.55;86.20